Time,TemperatureF,DewpointF,PressureIn,WindDirection,WindDirectionDegrees,WindSpeedMPH,WindSpeedGustMPH,Humidity,HourlyPrecipIn,Conditions,Clouds,dailyrainin,SoftwareType,DateUTC
2013-05-24 00:10:00,57.7,57.1,29.83,NNW,337,7.3,-999.0,98,-99.99,,,0.00,Acu-Link.com,2013-05-24 04:10:00,
2013-05-24 00:25:00,57.9,57.3,29.84,NW,315,9.9,-999.0,98,-99.99,,,0.00,Acu-Link.com,2013-05-24 04:25:00,
2013-05-24 00:40:00,57.7,57.1,29.86,NNW,337,5.3,-999.0,98,-99.99,,,0.00,Acu-Link.com,2013-05-24 04:40:00,
2013-05-24 00:55:00,57.6,57.0,29.85,WNW,292,4.2,-999.0,98,-99.99,,,0.00,Acu-Link.com,2013-05-24 04:55:00,
2013-05-24 01:10:00,57.0,56.4,29.85,North,0,5.8,-999.0,98,-99.99,,,0.00,Acu-Link.com,2013-05-24 05:10:00,
2013-05-24 01:26:00,56.7,56.1,29.85,NNE,22,4.2,-999.0,98,-99.99,,,0.00,Acu-Link.com,2013-05-24 05:26:00,
2013-05-24 01:41:00,56.1,55.5,29.85,NNE,22,5.8,-999.0,98,-99.99,,,0.00,Acu-Link.com,2013-05-24 05:41:00,
2013-05-24 01:56:00,56.1,55.5,29.85,NNW,337,7.8,-999.0,98,-99.99,,,0.00,Acu-Link.com,2013-05-24 05:56:00,
2013-05-24 02:11:00,55.6,55.0,29.85,North,0,3.2,-999.0,98,-99.99,,,0.00,Acu-Link.com,2013-05-24 06:11:00,
2013-05-24 02:27:00,55.0,54.4,29.84,North,0,1.7,-999.0,98,-99.99,,,0.00,Acu-Link.com,2013-05-24 06:27:00,
2013-05-24 02:42:00,54.9,54.3,29.85,NNW,337,5.8,-999.0,98,-99.99,,,0.00,Acu-Link.com,2013-05-24 06:42:00,
2013-05-24 02:57:00,55.4,54.8,29.84,WNW,292,5.8,-999.0,98,-99.99,,,0.00,Acu-Link.com,2013-05-24 06:57:00,
2013-05-24 03:12:00,55.4,54.8,29.84,NW,315,6.8,-999.0,98,-99.99,,,0.00,Acu-Link.com,2013-05-24 07:12:00,
2013-05-24 03:27:00,55.4,54.8,29.83,NNW,337,3.7,-999.0,98,-99.99,,,0.00,Acu-Link.com,2013-05-24 07:27:00,
2013-05-24 03:42:00,54.5,53.9,29.83,NNE,22,2.7,-999.0,98,-99.99,,,0.00,Acu-Link.com,2013-05-24 07:42:00,
2013-05-24 03:57:00,54.0,53.4,29.83,NNW,337,3.2,-999.0,98,-99.99,,,0.00,Acu-Link.com,2013-05-24 07:57:00,
2013-05-24 04:13:00,54.0,53.4,29.83,NW,315,4.2,-999.0,98,-99.99,,,0.00,Acu-Link.com,2013-05-24 08:13:00,
2013-05-24 04:28:00,54.3,53.7,29.83,NNW,337,3.2,-999.0,98,-99.99,,,0.00,Acu-Link.com,2013-05-24 08:28:00,
2013-05-24 04:43:00,54.1,53.5,29.83,NNW,337,3.7,-999.0,98,-99.99,,,0.00,Acu-Link.com,2013-05-24 08:43:00,
2013-05-24 04:58:00,54.0,53.4,29.83,NNW,337,4.2,-999.0,98,-99.99,,,0.00,Acu-Link.com,2013-05-24 08:58:00,
2013-05-24 05:13:00,53.6,53.0,29.84,NNW,337,2.2,-999.0,98,-99.99,,,0.00,Acu-Link.com,2013-05-24 09:13:00,
2013-05-24 05:28:00,52.3,51.8,29.84,WSW,247,2.7,-999.0,98,-99.99,,,0.00,Acu-Link.com,2013-05-24 09:28:00,
2013-05-24 05:43:00,53.8,53.2,29.83,NNW,337,6.3,-999.0,98,-99.99,,,0.00,Acu-Link.com,2013-05-24 09:43:00,
2013-05-24 05:58:00,54.7,54.1,29.84,SSE,157,3.7,-999.0,98,-99.99,,,0.00,Acu-Link.com,2013-05-24 09:58:00,
2013-05-24 06:14:00,54.5,53.9,29.84,NW,315,5.3,-999.0,98,-99.99,,,0.00,Acu-Link.com,2013-05-24 10:14:00,
2013-05-24 06:29:00,54.3,53.7,29.84,WNW,292,9.4,-999.0,98,-99.99,,,0.00,Acu-Link.com,2013-05-24 10:29:00,
2013-05-24 06:44:00,54.5,53.9,29.87,NW,315,9.9,-999.0,98,-99.99,,,0.00,Acu-Link.com,2013-05-24 10:44:00,
2013-05-24 06:59:00,54.1,53.5,29.89,North,0,7.3,-999.0,98,-99.99,,,0.00,Acu-Link.com,2013-05-24 10:59:00,
2013-05-24 07:14:00,54.0,53.4,29.91,NNW,337,4.7,-999.0,98,-99.99,,,0.00,Acu-Link.com,2013-05-24 11:14:00,
2013-05-24 07:29:00,54.3,53.7,29.91,NW,315,4.7,-999.0,98,-99.99,,,0.00,Acu-Link.com,2013-05-24 11:29:00,
2013-05-24 07:44:00,55.9,55.3,29.91,WNW,292,4.7,-999.0,98,-99.99,,,0.00,Acu-Link.com,2013-05-24 11:44:00,
2013-05-24 08:00:00,59.7,59.1,29.92,East,90,3.2,-999.0,98,-99.99,,,0.00,Acu-Link.com,2013-05-24 12:00:00,
2013-05-24 08:15:00,62.6,62.0,29.92,ESE,112,2.2,-999.0,98,-99.99,,,0.00,Acu-Link.com,2013-05-24 12:15:00,
2013-05-24 08:30:00,64.9,64.3,29.93,NE,45,2.7,-999.0,98,-99.99,,,0.00,Acu-Link.com,2013-05-24 12:30:00,
2013-05-24 08:45:00,66.0,65.4,29.94,NW,315,3.2,-999.0,98,-99.99,,,0.00,Acu-Link.com,2013-05-24 12:45:00,
2013-05-24 09:01:00,64.2,63.6,29.94,SSE,157,2.7,-999.0,98,-99.99,,,0.00,Acu-Link.com,2013-05-24 13:01:00,
2013-05-24 09:16:00,61.5,60.9,29.95,NNW,337,3.2,-999.0,98,-99.99,,,0.00,Acu-Link.com,2013-05-24 13:16:00,
2013-05-24 09:31:00,60.3,59.7,29.95,NNW,337,5.3,-999.0,98,-99.99,,,0.00,Acu-Link.com,2013-05-24 13:31:00,
2013-05-24 09:47:00,61.2,60.6,29.98,WNW,292,2.7,-999.0,98,-99.99,,,0.00,Acu-Link.com,2013-05-24 13:47:00,
2013-05-24 10:02:00,59.0,58.4,29.97,NNW,337,7.8,-999.0,98,-99.99,,,0.00,Acu-Link.com,2013-05-24 14:02:00,
2013-05-24 10:17:00,62.2,61.6,29.97,WNW,292,4.2,-999.0,98,-99.99,,,0.00,Acu-Link.com,2013-05-24 14:17:00,
2013-05-24 10:32:00,63.5,60.5,29.98,WNW,292,7.3,-999.0,90,-99.99,,,0.00,Acu-Link.com,2013-05-24 14:32:00,
2013-05-24 10:47:00,64.6,58.3,29.98,ENE,67,4.2,-999.0,80,-99.99,,,0.00,Acu-Link.com,2013-05-24 14:47:00,
2013-05-24 11:03:00,61.9,57.0,30.00,NNW,337,4.2,-999.0,84,-99.99,,,0.00,Acu-Link.com,2013-05-24 15:03:00,
2013-05-24 11:18:00,64.9,56.8,30.01,WNW,292,7.3,-999.0,75,-99.99,,,0.00,Acu-Link.com,2013-05-24 15:18:00,
2013-05-24 11:33:00,64.4,58.4,30.01,ESE,112,3.7,-999.0,81,-99.99,,,0.00,Acu-Link.com,2013-05-24 15:33:00,
2013-05-24 19:55:00,56.7,50.3,30.08,West,270,1.1,-999.0,79,-99.99,,,0.00,Acu-Link.com,2013-05-24 23:55:00,
2013-05-24 20:10:00,56.1,49.3,30.08,NNW,337,3.2,-999.0,78,-99.99,,,0.00,Acu-Link.com,2013-05-25 00:10:00,
2013-05-24 20:25:00,55.8,48.3,30.08,NNW,337,5.3,-999.0,76,-99.99,,,0.00,Acu-Link.com,2013-05-25 00:25:00,
2013-05-24 20:41:00,55.0,47.6,30.08,NNW,337,3.2,-999.0,76,-99.99,,,0.00,Acu-Link.com,2013-05-25 00:41:00,
2013-05-24 20:56:00,54.7,47.6,30.07,WNW,292,3.7,-999.0,77,-99.99,,,0.00,Acu-Link.com,2013-05-25 00:56:00,
2013-05-24 21:11:00,54.0,47.0,30.08,NNW,337,4.7,-999.0,77,-99.99,,,0.00,Acu-Link.com,2013-05-25 01:11:00,
2013-05-24 21:26:00,53.6,46.6,30.09,NNW,337,4.7,-999.0,77,-99.99,,,0.00,Acu-Link.com,2013-05-25 01:26:00,
2013-05-24 21:42:00,53.4,46.4,30.08,North,0,4.7,-999.0,77,-99.99,,,0.00,Acu-Link.com,2013-05-25 01:42:00,
2013-05-24 21:57:00,53.4,46.7,30.08,North,0,6.3,-999.0,78,-99.99,,,0.00,Acu-Link.com,2013-05-25 01:57:00,
2013-05-24 22:12:00,53.1,47.1,30.08,NNW,337,5.8,-999.0,80,-99.99,,,0.00,Acu-Link.com,2013-05-25 02:12:00,
2013-05-24 22:27:00,52.5,47.2,30.09,ENE,67,3.2,-999.0,82,-99.99,,,0.00,Acu-Link.com,2013-05-25 02:27:00,
2013-05-24 22:42:00,52.0,47.3,30.09,NNW,337,2.2,-999.0,84,-99.99,,,0.00,Acu-Link.com,2013-05-25 02:42:00,
2013-05-24 22:58:00,51.6,47.6,30.10,NNW,337,4.7,-999.0,86,-99.99,,,0.00,Acu-Link.com,2013-05-25 02:58:00,
2013-05-24 23:13:00,51.8,48.1,30.10,NNW,337,5.8,-999.0,87,-99.99,,,0.00,Acu-Link.com,2013-05-25 03:13:00,
2013-05-24 23:28:00,51.6,47.9,30.11,NNW,337,5.8,-999.0,87,-99.99,,,0.00,Acu-Link.com,2013-05-25 03:28:00,
2013-05-24 23:43:00,51.3,47.3,30.11,NW,315,4.2,-999.0,86,-99.99,,,0.00,Acu-Link.com,2013-05-25 03:43:00,
2013-05-24 23:59:00,51.1,47.4,30.12,NW,315,5.8,-999.0,87,-99.99,,,0.00,Acu-Link.com,2013-05-25 03:59:00,